createdAt,value
2018-09-17T00:00:27.247Z,97.89
2018-09-17T00:01:27.247Z,97.52
2018-09-17T00:02:27.243Z,97.80
2018-09-17T00:03:27.241Z,97.80
2018-09-17T00:04:27.244Z,98.28
2018-09-17T00:05:27.236Z,97.85
2018-09-17T00:06:27.236Z,97.61
2018-09-17T00:07:27.231Z,97.52
2018-09-17T00:08:27.229Z,97.99
2018-09-17T00:09:27.227Z,97.94
2018-09-17T00:10:27.226Z,98.47
2018-09-17T00:11:27.223Z,97.99
2018-09-17T00:12:27.220Z,98.32
2018-09-17T00:13:27.215Z,98.99
2018-09-17T00:14:27.214Z,98.61
2018-09-17T00:15:27.217Z,98.61
2018-09-17T00:16:27.209Z,98.99
2018-09-17T00:17:27.209Z,98.71
2018-09-17T00:18:27.210Z,98.71
2018-09-17T00:19:27.200Z,98.99
2018-09-17T00:20:27.206Z,98.80
2018-09-17T00:21:27.199Z,98.61
2018-09-17T00:22:27.195Z,99.57
2018-09-17T00:23:27.190Z,99.47
2018-09-17T00:24:27.192Z,99.76
2018-09-17T00:25:27.187Z,99.85
2018-09-17T00:26:27.191Z,99.57
2018-09-17T00:27:27.186Z,99.47
2018-09-17T00:28:27.181Z,99.85
2018-09-17T00:29:27.178Z,99.76
2018-09-17T00:30:27.177Z,99.66
2018-09-17T00:31:27.178Z,99.66
2018-09-17T00:32:27.169Z,99.47
2018-09-17T00:33:27.170Z,99.85
2018-09-17T00:34:27.165Z,99.85
2018-09-17T00:35:27.160Z,99.76
2018-09-17T00:36:27.158Z,99.85
2018-09-17T00:37:27.158Z,99.85
2018-09-17T00:38:27.155Z,99.85
2018-09-17T00:39:27.152Z,99.57
2018-09-17T00:40:27.150Z,99.85
2018-09-17T00:41:27.146Z,99.99
2018-09-17T00:42:27.146Z,99.99
2018-09-17T00:43:27.139Z,99.52
2018-09-17T00:44:27.143Z,99.99
2018-09-17T00:45:27.141Z,99.99
2018-09-17T00:46:27.132Z,99.99
2018-09-17T00:47:27.132Z,99.99
2018-09-17T00:48:27.129Z,99.99
2018-09-17T00:49:27.130Z,99.99
2018-09-17T00:50:27.124Z,99.99
2018-09-17T00:51:27.124Z,99.99
2018-09-17T00:52:27.117Z,99.99
2018-09-17T00:53:27.118Z,99.99
2018-09-17T00:54:27.109Z,99.99
2018-09-17T00:55:27.741Z,99.99
2018-09-17T00:56:27.109Z,99.99
2018-09-17T00:57:27.098Z,99.99
2018-09-17T00:58:27.096Z,99.99
2018-09-17T00:59:27.100Z,99.99
2018-09-17T01:00:27.092Z,99.99
2018-09-17T01:01:27.091Z,99.99
2018-09-17T01:02:27.096Z,99.99
2018-09-17T01:03:27.083Z,99.99
2018-09-17T01:04:27.081Z,99.99
2018-09-17T01:05:27.081Z,99.99
2018-09-17T01:06:27.074Z,99.99
2018-09-17T01:07:27.071Z,99.99
2018-09-17T01:08:27.068Z,99.99
2018-09-17T01:09:27.069Z,99.99
2018-09-17T01:10:27.066Z,99.99
2018-09-17T01:11:27.060Z,99.99
2018-09-17T01:12:27.057Z,99.99
2018-09-17T01:13:27.055Z,99.99
2018-09-17T01:14:27.059Z,99.99
2018-09-17T01:15:27.051Z,99.99
2018-09-17T01:16:27.045Z,99.99
2018-09-17T01:17:27.045Z,99.99
2018-09-17T01:18:27.037Z,99.99
2018-09-17T01:19:27.040Z,99.99
2018-09-17T01:20:27.035Z,99.99
2018-09-17T01:21:27.031Z,99.99
2018-09-17T01:22:27.027Z,99.99
2018-09-17T01:23:27.024Z,99.99
2018-09-17T01:24:27.023Z,99.99
2018-09-17T01:25:27.021Z,99.99
2018-09-17T01:26:27.017Z,99.99
2018-09-17T01:27:27.008Z,99.99
2018-09-17T01:28:27.009Z,99.99
2018-09-17T01:29:27.003Z,99.99
2018-09-17T01:30:27.006Z,99.99
2018-09-17T01:31:27.004Z,99.99
2018-09-17T01:32:26.998Z,99.99
2018-09-17T01:33:26.993Z,99.99
2018-09-17T01:34:26.991Z,99.99
2018-09-17T01:35:26.988Z,99.99
2018-09-17T01:36:26.984Z,99.99
2018-09-17T01:37:26.981Z,99.99
2018-09-17T01:38:26.977Z,99.99
2018-09-17T01:39:26.972Z,99.99
2018-09-17T01:40:26.973Z,99.99
2018-09-17T01:41:26.974Z,99.99
2018-09-17T01:42:26.964Z,99.99
2018-09-17T01:43:26.968Z,99.99
2018-09-17T01:44:26.958Z,99.99
2018-09-17T01:45:26.963Z,99.99
2018-09-17T01:46:26.954Z,99.99
2018-09-17T01:47:26.947Z,99.99
2018-09-17T01:48:26.947Z,99.99
2018-09-17T01:49:26.940Z,99.99
2018-09-17T01:50:26.937Z,99.99
2018-09-17T01:51:26.936Z,99.99
2018-09-17T01:52:26.940Z,99.99
2018-09-17T01:53:26.928Z,99.99
2018-09-17T01:54:26.925Z,99.99
2018-09-17T01:55:26.922Z,99.99
2018-09-17T01:56:26.917Z,99.99
2018-09-17T01:57:26.915Z,99.99
2018-09-17T01:58:26.913Z,99.99
2018-09-17T01:59:26.915Z,99.99
2018-09-17T02:00:26.903Z,99.99
2018-09-17T02:01:26.901Z,99.99
2018-09-17T02:02:26.904Z,99.99
2018-09-17T02:03:26.895Z,99.99
2018-09-17T02:04:26.890Z,99.99
2018-09-17T02:05:26.891Z,99.99
2018-09-17T02:06:26.883Z,99.99
2018-09-17T02:07:26.882Z,99.99
2018-09-17T02:08:26.961Z,99.99
2018-09-17T02:09:26.874Z,99.99
2018-09-17T02:10:26.869Z,99.99
2018-09-17T02:11:26.868Z,99.99
2018-09-17T02:12:26.864Z,99.99
2018-09-17T02:13:26.861Z,99.99
2018-09-17T02:14:26.862Z,99.99
2018-09-17T02:15:26.852Z,99.99
2018-09-17T02:16:26.849Z,99.99
2018-09-17T02:17:26.845Z,99.99
2018-09-17T02:18:26.844Z,99.99
2018-09-17T02:19:26.833Z,99.99
2018-09-17T02:20:26.836Z,99.99
2018-09-17T02:21:26.830Z,99.99
2018-09-17T02:22:26.831Z,99.99
2018-09-17T02:23:26.823Z,99.99
2018-09-17T02:24:26.826Z,99.99
2018-09-17T02:25:26.817Z,99.99
2018-09-17T02:26:26.815Z,99.99
2018-09-17T02:27:26.814Z,99.99
2018-09-17T02:28:26.806Z,99.99
2018-09-17T02:29:26.813Z,99.99
2018-09-17T02:30:26.796Z,99.99
2018-09-17T02:31:26.796Z,99.99
2018-09-17T02:32:26.795Z,99.99
2018-09-17T02:33:26.794Z,99.99
2018-09-17T02:34:26.785Z,99.99
2018-09-17T02:35:26.792Z,99.99
2018-09-17T02:36:26.776Z,99.99
2018-09-17T02:37:26.773Z,99.99
2018-09-17T02:38:26.773Z,99.99
2018-09-17T02:39:26.768Z,99.99
2018-09-17T02:40:26.762Z,99.99
2018-09-17T02:41:26.777Z,99.99
2018-09-17T02:42:26.754Z,99.99
2018-09-17T02:43:26.758Z,99.99
2018-09-17T02:44:26.746Z,99.99
2018-09-17T02:45:26.747Z,99.99
2018-09-17T02:46:26.745Z,99.99
2018-09-17T02:47:26.738Z,99.99
2018-09-17T02:48:26.737Z,99.99
2018-09-17T02:49:26.737Z,99.99
2018-09-17T02:50:26.725Z,99.99
2018-09-17T02:51:26.724Z,99.99
2018-09-17T02:52:26.722Z,99.99
2018-09-17T02:53:26.767Z,99.99
2018-09-17T02:54:26.709Z,99.99
2018-09-17T02:55:26.717Z,99.99
2018-09-17T02:56:26.706Z,99.99
2018-09-17T02:57:26.705Z,99.99
2018-09-17T02:58:26.697Z,99.99
2018-09-17T02:59:26.692Z,99.99
2018-09-17T03:00:26.689Z,99.99
2018-09-17T03:01:26.687Z,99.99
2018-09-17T03:02:26.679Z,99.99
2018-09-17T03:03:26.677Z,99.99
2018-09-17T03:04:26.676Z,99.99
2018-09-17T03:05:26.670Z,99.99
2018-09-17T03:06:26.672Z,99.99
2018-09-17T03:07:26.661Z,99.99
2018-09-17T03:08:26.657Z,99.99
2018-09-17T03:09:26.654Z,99.99
2018-09-17T03:10:26.651Z,99.99
2018-09-17T03:11:26.652Z,99.99
2018-09-17T03:12:26.641Z,99.99
2018-09-17T03:13:26.642Z,99.99
2018-09-17T03:14:26.637Z,99.99
2018-09-17T03:15:26.633Z,99.99
2018-09-17T03:16:26.628Z,99.99
2018-09-17T03:17:26.624Z,99.99
2018-09-17T03:18:26.622Z,99.99
2018-09-17T03:19:26.619Z,99.99
2018-09-17T03:20:26.613Z,99.99
2018-09-17T03:21:26.609Z,99.99
2018-09-17T03:22:26.606Z,99.99
2018-09-17T03:23:26.602Z,99.99
2018-09-17T03:24:26.618Z,99.99
2018-09-17T03:25:26.596Z,99.99
2018-09-17T03:26:26.589Z,99.99
2018-09-17T03:27:26.588Z,99.99
2018-09-17T03:28:26.581Z,99.99
2018-09-17T03:29:26.578Z,99.99
2018-09-17T03:30:26.574Z,99.99
2018-09-17T03:31:26.570Z,99.99
2018-09-17T03:32:26.565Z,99.99
2018-09-17T03:33:26.561Z,99.99
2018-09-17T03:34:26.558Z,99.99
2018-09-17T03:35:26.554Z,99.99
2018-09-17T03:36:26.550Z,99.99
2018-09-17T03:37:26.548Z,99.99
2018-09-17T03:38:26.540Z,99.99
2018-09-17T03:39:26.537Z,99.99
2018-09-17T03:40:26.532Z,99.99
2018-09-17T03:41:26.538Z,99.99
2018-09-17T03:42:26.529Z,99.99
2018-09-17T03:43:26.529Z,99.99
2018-09-17T03:44:26.516Z,99.99
2018-09-17T03:45:26.535Z,99.99
2018-09-17T03:46:26.546Z,99.99
2018-09-17T03:47:26.507Z,99.99
2018-09-17T03:48:26.501Z,99.99
2018-09-17T03:49:26.500Z,99.99
2018-09-17T03:50:26.502Z,99.99
2018-09-17T03:51:26.491Z,99.99
2018-09-17T03:52:26.487Z,99.99
2018-09-17T03:53:26.487Z,99.99
2018-09-17T03:54:26.480Z,99.99
2018-09-17T03:55:26.480Z,99.99
2018-09-17T03:56:26.469Z,99.99
2018-09-17T03:57:26.472Z,99.99
2018-09-17T03:58:26.465Z,99.99
2018-09-17T03:59:26.460Z,99.99
2018-09-17T04:00:26.462Z,99.99
2018-09-17T04:01:26.458Z,99.99
2018-09-17T04:02:26.449Z,99.99
2018-09-17T04:03:26.443Z,99.99
2018-09-17T04:04:26.446Z,99.99
2018-09-17T04:05:26.438Z,99.99
2018-09-17T04:06:26.437Z,99.99
2018-09-17T04:07:26.429Z,99.99
2018-09-17T04:08:26.426Z,99.99
2018-09-17T04:09:26.416Z,99.99
2018-09-17T04:10:26.417Z,99.99
2018-09-17T04:11:26.418Z,99.99
2018-09-17T04:12:26.407Z,99.99
2018-09-17T04:13:26.405Z,99.99
2018-09-17T04:14:26.408Z,99.99
2018-09-17T04:15:26.402Z,99.99
2018-09-17T04:16:26.396Z,99.99
2018-09-17T04:17:26.393Z,99.99
2018-09-17T04:18:26.384Z,99.99
2018-09-17T04:19:26.382Z,99.99
2018-09-17T04:20:26.380Z,99.99
2018-09-17T04:21:26.372Z,99.99
2018-09-17T04:22:26.369Z,99.99
2018-09-17T04:23:26.362Z,99.99
2018-09-17T04:24:26.360Z,99.99
2018-09-17T04:25:26.356Z,99.99
2018-09-17T04:26:26.352Z,99.99
2018-09-17T04:27:26.350Z,99.99
2018-09-17T04:28:26.345Z,99.99
2018-09-17T04:29:26.341Z,99.99
2018-09-17T04:30:26.335Z,99.99
2018-09-17T04:31:26.382Z,99.99
2018-09-17T04:32:26.328Z,99.99
2018-09-17T04:33:26.326Z,99.99
2018-09-17T04:34:26.324Z,99.99
2018-09-17T04:35:26.322Z,99.99
2018-09-17T04:36:26.312Z,99.99
2018-09-17T04:37:26.307Z,99.99
2018-09-17T04:38:26.305Z,99.99
2018-09-17T04:39:26.300Z,99.99
2018-09-17T04:40:26.295Z,99.99
2018-09-17T04:41:26.296Z,99.99
2018-09-17T04:42:26.289Z,99.99
2018-09-17T04:43:26.281Z,99.99
2018-09-17T04:44:26.278Z,99.99
2018-09-17T04:45:26.280Z,99.99
2018-09-17T04:46:26.273Z,99.99
2018-09-17T04:47:26.267Z,99.99
2018-09-17T04:48:26.262Z,99.99
2018-09-17T04:49:26.256Z,99.99
2018-09-17T04:50:26.260Z,99.99
2018-09-17T04:51:26.348Z,99.99
2018-09-17T04:52:26.246Z,99.99
2018-09-17T04:53:26.244Z,99.99
2018-09-17T04:54:26.236Z,99.99
2018-09-17T04:55:26.233Z,99.99
2018-09-17T04:56:26.228Z,99.99
2018-09-17T04:57:26.278Z,99.99
2018-09-17T04:58:26.223Z,99.99
2018-09-17T04:59:26.218Z,99.99
2018-09-17T05:00:26.220Z,99.99
2018-09-17T05:01:26.211Z,99.99
2018-09-17T05:02:26.208Z,99.99
2018-09-17T05:03:26.195Z,99.99
2018-09-17T05:04:26.196Z,99.99
2018-09-17T05:05:26.197Z,99.99
2018-09-17T05:06:26.189Z,99.99
2018-09-17T05:07:26.263Z,99.99
2018-09-17T05:08:26.179Z,99.99
2018-09-17T05:09:26.180Z,99.99
2018-09-17T05:10:26.173Z,99.99
2018-09-17T05:11:26.172Z,99.99
2018-09-17T05:12:26.168Z,99.99
2018-09-17T05:13:26.305Z,99.99
2018-09-17T05:14:26.158Z,99.99
2018-09-17T05:15:26.151Z,99.99
2018-09-17T05:16:26.148Z,99.99
2018-09-17T05:17:26.147Z,99.99
2018-09-17T05:18:26.143Z,99.99
2018-09-17T05:19:26.135Z,99.99
2018-09-17T05:20:26.133Z,99.99
2018-09-17T05:21:26.128Z,99.99
2018-09-17T05:22:26.126Z,99.99
2018-09-17T05:23:26.118Z,99.99
2018-09-17T05:24:26.114Z,99.99
2018-09-17T05:25:26.114Z,99.99
2018-09-17T05:26:26.109Z,99.99
2018-09-17T05:27:26.106Z,99.99
2018-09-17T05:28:26.102Z,99.99
2018-09-17T05:29:26.108Z,99.99
2018-09-17T05:30:26.093Z,99.99
2018-09-17T05:31:26.088Z,99.99
2018-09-17T05:32:26.083Z,99.99
2018-09-17T05:33:26.080Z,99.99
2018-09-17T05:34:26.074Z,99.99
2018-09-17T05:35:26.072Z,99.99
2018-09-17T05:36:26.068Z,99.99
2018-09-17T05:37:26.065Z,99.99
2018-09-17T05:38:26.067Z,99.99
2018-09-17T05:39:26.056Z,97.71
2018-09-17T05:40:26.053Z,93.60
2018-09-17T05:41:26.052Z,90.39
2018-09-17T05:42:26.046Z,87.03
2018-09-17T05:43:26.042Z,84.30
2018-09-17T05:44:26.042Z,81.60
2018-09-17T05:45:26.036Z,79.24
2018-09-17T05:46:26.031Z,78.42
2018-09-17T05:47:26.032Z,75.57
2018-09-17T05:48:26.028Z,74.13
2018-09-17T05:49:26.025Z,73.08
2018-09-17T05:50:26.023Z,73.27
2018-09-17T05:51:26.020Z,73.02
2018-09-17T05:52:26.022Z,73.11
2018-09-17T05:53:26.013Z,71.81
2018-09-17T05:54:26.013Z,70.21
2018-09-17T05:55:26.009Z,69.85
2018-09-17T05:56:26.015Z,68.51
2018-09-17T05:57:26.007Z,67.22
2018-09-17T05:58:26.020Z,68.15
2018-09-17T05:59:26.027Z,70.49
2018-09-17T06:00:26.007Z,72.99
2018-09-17T06:01:25.999Z,74.54
2018-09-17T06:02:26.003Z,75.46
2018-09-17T06:03:26.029Z,78.40
2018-09-17T06:04:26.039Z,78.97
2018-09-17T06:05:25.993Z,80.27
2018-09-17T06:06:25.991Z,80.47
2018-09-17T06:07:25.995Z,79.01
2018-09-17T06:08:25.983Z,76.79
2018-09-17T06:09:25.988Z,74.55
2018-09-17T06:10:26.007Z,72.48
2018-09-17T06:11:25.996Z,70.40
2018-09-17T06:12:26.022Z,69.63
2018-09-17T06:13:25.985Z,70.07
2018-09-17T06:14:26.006Z,72.60
2018-09-17T06:15:25.977Z,74.77
2018-09-17T06:16:25.971Z,75.89
2018-09-17T06:17:25.994Z,77.29
2018-09-17T06:18:25.974Z,77.34
2018-09-17T06:19:25.976Z,78.40
2018-09-17T06:20:25.977Z,79.93
2018-09-17T06:21:26.746Z,80.08
2018-09-17T06:22:25.992Z,80.94
2018-09-17T06:23:26.093Z,81.52
2018-09-17T06:24:25.977Z,79.97
2018-09-17T06:25:25.965Z,76.07
2018-09-17T06:26:25.975Z,73.46
2018-09-17T06:27:25.967Z,71.81
2018-09-17T06:28:26.006Z,68.41
2018-09-17T06:29:25.969Z,66.71
2018-09-17T06:30:25.990Z,64.73
2018-09-17T06:31:25.967Z,63.12
2018-09-17T06:32:25.958Z,62.48
2018-09-17T06:33:26.007Z,60.28
2018-09-17T06:34:25.964Z,59.45
2018-09-17T06:35:25.959Z,58.73
2018-09-17T06:36:25.962Z,58.18
2018-09-17T06:37:26.002Z,57.63
2018-09-17T06:38:25.959Z,55.82
2018-09-17T06:39:25.972Z,54.88
2018-09-17T06:40:25.961Z,53.26
2018-09-17T06:41:26.005Z,52.10
2018-09-17T06:42:25.966Z,51.64
2018-09-17T06:43:25.991Z,51.06
2018-09-17T06:44:25.962Z,49.44
2018-09-17T06:45:25.973Z,49.82
2018-09-17T06:46:26.003Z,49.02
2018-09-17T06:47:25.968Z,49.54
2018-09-17T06:48:25.963Z,49.27
2018-09-17T06:49:25.968Z,49.37
2018-09-17T06:50:25.988Z,48.71
2018-09-17T06:51:26.031Z,47.33
2018-09-17T06:52:26.754Z,47.25
2018-09-17T06:53:25.973Z,46.60
2018-09-17T06:54:26.023Z,46.79
2018-09-17T06:55:25.986Z,45.82
2018-09-17T06:56:25.993Z,46.04
2018-09-17T06:57:25.982Z,45.09
2018-09-17T06:58:25.983Z,44.58
2018-09-17T06:59:25.986Z,45.18
2018-09-17T07:00:25.992Z,44.24
2018-09-17T07:01:25.998Z,44.14
2018-09-17T07:02:25.992Z,44.06
2018-09-17T07:03:26.024Z,43.29
2018-09-17T07:04:26.834Z,43.36
2018-09-17T07:05:26.002Z,43.78
2018-09-17T07:06:26.834Z,45.87
2018-09-17T07:07:26.002Z,46.92
2018-09-17T07:08:26.007Z,47.02
2018-09-17T07:09:26.011Z,47.57
2018-09-17T07:10:26.015Z,47.45
2018-09-17T07:11:26.013Z,49.56
2018-09-17T07:12:26.018Z,51.35
2018-09-17T07:13:26.022Z,52.65
2018-09-17T07:14:26.028Z,53.69
2018-09-17T07:15:26.043Z,55.78
2018-09-17T07:16:26.037Z,57.81
2018-09-17T07:17:26.033Z,57.20
2018-09-17T07:18:26.034Z,57.37
2018-09-17T07:19:26.036Z,58.59
2018-09-17T07:20:26.075Z,58.85
2018-09-17T07:21:26.040Z,59.81
2018-09-17T07:22:26.051Z,59.52
2018-09-17T07:23:26.043Z,60.58
2018-09-17T07:24:26.043Z,61.04
2018-09-17T07:25:26.048Z,60.84
2018-09-17T07:26:26.048Z,60.94
2018-09-17T07:27:26.058Z,60.65
2018-09-17T07:28:26.052Z,61.04
2018-09-17T07:29:26.057Z,61.32
2018-09-17T07:30:26.058Z,60.65
2018-09-17T07:31:26.057Z,60.65
2018-09-17T07:32:26.062Z,60.62
2018-09-17T07:33:26.058Z,62.00
2018-09-17T07:34:26.061Z,62.00
2018-09-17T07:35:26.062Z,60.84
2018-09-17T07:36:26.187Z,62.67
2018-09-17T07:37:26.068Z,62.67
2018-09-17T07:38:26.067Z,62.77
2018-09-17T07:39:26.068Z,62.00
2018-09-17T07:40:26.112Z,62.00
2018-09-17T07:41:26.081Z,62.48
2018-09-17T07:42:26.109Z,61.61
2018-09-17T07:43:26.773Z,60.97
2018-09-17T07:44:26.075Z,61.07
2018-09-17T07:45:26.090Z,60.87
2018-09-17T07:46:26.095Z,61.07
2018-09-17T07:47:26.079Z,60.58
2018-09-17T07:48:26.079Z,60.30
2018-09-17T07:49:26.090Z,60.30
2018-09-17T07:50:26.082Z,60.87
2018-09-17T07:51:26.083Z,61.35
2018-09-17T07:52:26.775Z,60.49
2018-09-17T07:53:26.089Z,60.30
2018-09-17T07:54:26.086Z,60.30
2018-09-17T07:55:26.083Z,59.65
2018-09-17T07:56:26.090Z,58.65
2018-09-17T07:57:26.093Z,59.07
2018-09-17T07:58:26.093Z,59.36
2018-09-17T07:59:26.096Z,58.69
2018-09-17T08:00:26.099Z,59.65
2018-09-17T08:01:26.101Z,59.75
2018-09-17T08:02:26.098Z,60.23
2018-09-17T08:03:26.105Z,59.36
2018-09-17T08:04:26.103Z,58.01
2018-09-17T08:05:26.102Z,58.59
2018-09-17T08:06:26.104Z,58.59
2018-09-17T08:07:26.099Z,58.88
2018-09-17T08:09:26.110Z,58.40
2018-09-17T08:10:26.797Z,58.95
2018-09-17T08:11:26.233Z,58.78
2018-09-17T08:12:27.023Z,58.59
2018-09-17T08:13:26.488Z,58.59
2018-09-17T08:14:26.114Z,58.59
2018-09-17T08:15:26.115Z,58.33
2018-09-17T08:16:26.204Z,57.85
2018-09-17T08:17:26.190Z,57.85
2018-09-17T08:18:26.372Z,57.94
2018-09-17T08:19:26.120Z,57.07
2018-09-17T08:20:26.129Z,56.62
2018-09-17T08:21:26.245Z,56.91
2018-09-17T08:22:26.127Z,58.17
2018-09-17T08:23:26.127Z,57.39
2018-09-17T08:24:26.410Z,56.04
2018-09-17T08:25:26.137Z,58.07
2018-09-17T08:26:26.219Z,57.97
2018-09-17T08:27:26.128Z,58.17
2018-09-17T08:28:26.134Z,57.01
2018-09-17T08:29:26.136Z,56.14
2018-09-17T08:30:26.141Z,56.04
2018-09-17T08:31:26.196Z,56.43
2018-09-17T08:32:26.144Z,56.46
2018-09-17T08:33:26.535Z,55.68
2018-09-17T08:34:26.152Z,55.88
2018-09-17T08:35:26.150Z,54.43
2018-09-17T08:36:26.149Z,54.65
2018-09-17T08:37:26.150Z,55.13
2018-09-17T08:38:26.153Z,55.90
2018-09-17T08:39:26.157Z,55.71
2018-09-17T08:40:26.155Z,55.62
2018-09-17T08:41:26.165Z,55.23
2018-09-17T08:42:26.162Z,55.81
2018-09-17T08:43:26.163Z,54.97
2018-09-17T08:44:26.169Z,54.49
2018-09-17T08:45:26.190Z,53.71
2018-09-17T08:46:26.176Z,53.91
2018-09-17T08:47:26.170Z,53.81
2018-09-17T08:48:26.170Z,53.81
2018-09-17T08:49:26.175Z,54.58
2018-09-17T08:50:26.179Z,53.03
2018-09-17T08:51:26.177Z,53.61
2018-09-17T08:52:26.181Z,53.71
2018-09-17T08:53:26.186Z,53.81
2018-09-17T08:54:26.188Z,53.42
2018-09-17T08:55:26.190Z,52.75
2018-09-17T08:56:26.190Z,52.65
2018-09-17T08:57:26.196Z,53.03
2018-09-17T08:58:26.198Z,53.42
2018-09-17T08:59:26.199Z,53.33
2018-09-17T09:00:27.186Z,54.77
2018-09-17T09:01:26.350Z,54.19
2018-09-17T09:02:26.401Z,53.61
2018-09-17T09:03:26.213Z,52.55
2018-09-17T09:04:26.212Z,52.65
2018-09-17T09:05:26.215Z,52.55
2018-09-17T09:06:26.222Z,52.00
2018-09-17T09:07:26.288Z,52.77
2018-09-17T09:08:26.222Z,51.81
2018-09-17T09:09:26.224Z,50.55
2018-09-17T09:10:26.745Z,51.32
2018-09-17T09:11:26.316Z,51.78
2018-09-17T09:12:26.235Z,52.09
2018-09-17T09:13:26.235Z,51.59
2018-09-17T09:14:26.238Z,51.81
2018-09-17T09:15:26.234Z,52.09
2018-09-17T09:16:26.248Z,51.13
2018-09-17T09:17:26.346Z,51.13
2018-09-17T09:18:26.249Z,51.03
2018-09-17T09:19:26.271Z,51.71
2018-09-17T09:20:26.252Z,51.39
2018-09-17T09:21:26.258Z,51.10
2018-09-17T09:22:26.260Z,52.07
2018-09-17T09:23:26.273Z,51.97
2018-09-17T09:24:26.264Z,51.68
2018-09-17T09:25:26.311Z,52.26
2018-09-17T09:26:26.273Z,52.75
2018-09-17T09:27:26.272Z,53.81
2018-09-17T09:28:26.278Z,53.91
2018-09-17T09:29:26.280Z,53.42
2018-09-17T09:30:26.277Z,53.61
2018-09-17T09:31:26.284Z,51.87
2018-09-17T09:32:26.285Z,52.84
2018-09-17T09:33:26.290Z,51.85
2018-09-17T09:34:26.288Z,52.36
2018-09-17T09:35:26.294Z,51.95
2018-09-17T09:36:26.310Z,52.91
2018-09-17T09:37:26.300Z,52.62
2018-09-17T09:38:26.304Z,52.81
2018-09-17T09:39:26.314Z,52.33
2018-09-17T09:40:26.311Z,52.94
2018-09-17T09:41:26.309Z,53.13
2018-09-17T09:42:26.318Z,52.65
2018-09-17T09:43:26.315Z,52.75
2018-09-17T09:44:26.317Z,52.55
2018-09-17T09:45:26.329Z,52.84
2018-09-17T09:46:26.381Z,52.55
2018-09-17T09:47:26.325Z,51.87
2018-09-17T09:48:26.329Z,51.87
2018-09-17T09:49:26.333Z,51.68
2018-09-17T09:50:26.334Z,52.75
2018-09-17T09:51:26.337Z,51.97
2018-09-17T09:52:26.336Z,52.65
2018-09-17T09:53:26.646Z,52.65
2018-09-17T09:54:26.344Z,52.65
2018-09-17T09:55:26.343Z,52.36
2018-09-17T09:56:26.348Z,51.87
2018-09-17T09:57:26.350Z,51.97
2018-09-17T09:58:26.354Z,51.78
2018-09-17T09:59:26.448Z,53.23
2018-09-17T10:00:26.356Z,54.51
2018-09-17T10:01:26.360Z,52.97
2018-09-17T10:02:26.364Z,52.97
2018-09-17T10:03:26.415Z,52.00
2018-09-17T10:04:26.368Z,50.65
2018-09-17T10:05:26.365Z,50.16
2018-09-17T10:06:26.368Z,50.45
2018-09-17T10:07:26.372Z,51.03
2018-09-17T10:08:26.377Z,51.51
2018-09-17T10:09:26.386Z,51.03
2018-09-17T10:10:26.382Z,49.39
2018-09-17T10:11:26.423Z,48.90
2018-09-17T10:12:26.386Z,50.55
2018-09-17T10:13:26.392Z,51.15
2018-09-17T10:14:26.391Z,49.99
2018-09-17T10:15:26.397Z,50.48
2018-09-17T10:16:26.433Z,49.12
2018-09-17T10:17:26.398Z,50.28
2018-09-17T10:18:26.399Z,49.05
2018-09-17T10:19:26.459Z,48.37
2018-09-17T10:20:26.404Z,48.37
2018-09-17T10:21:26.411Z,49.24
2018-09-17T10:22:26.413Z,46.92
2018-09-17T10:23:26.416Z,47.02
2018-09-17T10:24:26.558Z,47.50
2018-09-17T10:25:26.425Z,47.02
2018-09-17T10:26:26.424Z,48.66
2018-09-17T10:27:26.632Z,48.95
2018-09-17T10:28:26.427Z,48.69
2018-09-17T10:29:26.433Z,48.69
2018-09-17T10:30:26.437Z,49.07
2018-09-17T10:31:26.436Z,47.04
2018-09-17T10:32:26.441Z,47.04
2018-09-17T10:33:26.475Z,45.68
2018-09-17T10:34:26.447Z,45.59
2018-09-17T10:35:26.496Z,45.59
2018-09-17T10:36:26.449Z,46.66
2018-09-17T10:37:26.450Z,44.91
2018-09-17T10:38:26.465Z,45.59
2018-09-17T10:39:26.479Z,45.98
2018-09-17T10:40:26.521Z,48.20
2018-09-17T10:41:26.464Z,46.84
2018-09-17T10:42:26.469Z,44.81
2018-09-17T10:43:26.480Z,46.66
2018-09-17T10:44:26.477Z,48.20
2018-09-17T10:45:26.480Z,46.66
2018-09-17T10:46:26.587Z,45.40
2018-09-17T10:47:26.661Z,45.68
2018-09-17T10:48:26.836Z,45.88
2018-09-17T10:49:26.598Z,45.10
2018-09-17T10:50:26.535Z,44.72
2018-09-17T10:51:26.576Z,44.43
2018-09-17T10:52:26.628Z,44.64
2018-09-17T10:53:26.641Z,46.19
2018-09-17T10:54:26.507Z,46.97
2018-09-17T10:55:27.434Z,45.51
2018-09-17T10:56:26.511Z,43.58
2018-09-17T10:57:26.667Z,43.38
2018-09-17T10:58:26.518Z,45.32
2018-09-17T10:59:26.521Z,43.77
2018-09-17T11:00:27.339Z,44.06
2018-09-17T11:01:26.526Z,45.51
2018-09-17T11:02:26.525Z,44.74
2018-09-17T11:03:26.860Z,44.93
2018-09-17T11:04:26.539Z,44.93
2018-09-17T11:05:26.538Z,46.09
2018-09-17T11:06:26.543Z,44.64
2018-09-17T11:07:26.598Z,44.64
2018-09-17T11:08:26.548Z,44.54
2018-09-17T11:09:26.550Z,44.35
2018-09-17T11:10:26.554Z,43.77
2018-09-17T11:11:26.565Z,43.87
2018-09-17T11:12:26.571Z,43.19
2018-09-17T11:13:26.571Z,43.38
2018-09-17T11:14:26.567Z,43.29
2018-09-17T11:15:26.566Z,43.60
2018-09-17T11:16:26.574Z,44.76
2018-09-17T11:17:26.600Z,44.54
2018-09-17T11:18:26.579Z,43.60
2018-09-17T11:19:26.584Z,42.32
2018-09-17T11:20:26.580Z,42.72
2018-09-17T11:21:26.589Z,43.77
2018-09-17T11:22:26.591Z,42.82
2018-09-17T11:23:26.592Z,42.03
2018-09-17T11:24:26.597Z,40.59
2018-09-17T11:25:26.601Z,41.86
2018-09-17T11:26:26.608Z,42.63
2018-09-17T11:27:26.607Z,42.63
2018-09-17T11:28:26.608Z,41.56
2018-09-17T11:29:26.620Z,41.95
2018-09-17T11:30:26.617Z,41.76
2018-09-17T11:31:26.679Z,41.27
2018-09-17T11:32:26.624Z,39.72
2018-09-17T11:33:26.626Z,40.21
2018-09-17T11:34:26.634Z,40.69
2018-09-17T11:35:26.638Z,40.69
2018-09-17T11:36:26.636Z,40.40
2018-09-17T11:37:26.641Z,40.31
2018-09-17T11:38:27.355Z,40.81
2018-09-17T11:39:26.648Z,40.61
2018-09-17T11:40:26.649Z,40.23
2018-09-17T11:41:26.652Z,39.06
2018-09-17T11:42:26.656Z,40.03
2018-09-17T11:43:26.657Z,40.23
2018-09-17T11:44:26.661Z,39.74
2018-09-17T11:45:26.668Z,40.03
2018-09-17T11:46:26.684Z,39.06
2018-09-17T11:47:26.670Z,40.13
2018-09-17T11:48:26.696Z,40.42
2018-09-17T11:49:26.677Z,40.03
2018-09-17T11:50:26.690Z,39.16
2018-09-17T11:51:26.684Z,38.70
2018-09-17T11:52:26.689Z,40.25
2018-09-17T11:53:26.693Z,39.67
2018-09-17T11:54:26.702Z,39.28
2018-09-17T11:55:26.700Z,38.40
2018-09-17T11:56:26.706Z,39.57
2018-09-17T11:57:26.707Z,39.08
2018-09-17T11:58:26.713Z,38.99
2018-09-17T11:59:26.712Z,38.79
2018-09-17T12:00:26.716Z,39.18
2018-09-17T12:01:26.722Z,38.40
2018-09-17T12:02:26.725Z,38.21
2018-09-17T12:03:26.729Z,40.05
2018-09-17T12:04:26.737Z,38.12
2018-09-17T12:05:26.734Z,38.12
2018-09-17T12:06:26.739Z,38.60
2018-09-17T12:07:26.742Z,39.95
2018-09-17T12:08:26.746Z,39.76
2018-09-17T12:09:26.755Z,39.67
2018-09-17T12:10:26.754Z,38.70
2018-09-17T12:11:26.756Z,39.37
2018-09-17T12:12:26.760Z,38.12
2018-09-17T12:13:26.761Z,38.13
2018-09-17T12:14:26.785Z,38.42
2018-09-17T12:15:26.773Z,37.26
2018-09-17T12:16:26.778Z,36.87
2018-09-17T12:17:26.780Z,36.29
2018-09-17T12:18:26.783Z,38.71
2018-09-17T12:19:26.806Z,37.74
2018-09-17T12:20:26.791Z,37.57
2018-09-17T12:21:26.793Z,37.57
2018-09-17T12:22:26.798Z,36.30
2018-09-17T12:23:26.803Z,35.63
2018-09-17T12:24:26.810Z,34.95
2018-09-17T12:25:26.808Z,35.24
2018-09-17T12:26:26.822Z,35.05
2018-09-17T12:27:26.816Z,33.98
2018-09-17T12:28:26.821Z,35.14
2018-09-17T12:29:26.824Z,35.33
2018-09-17T12:30:26.833Z,35.72
2018-09-17T12:31:26.830Z,36.69
2018-09-17T12:32:26.835Z,36.79
2018-09-17T12:33:26.849Z,35.92
2018-09-17T12:34:26.845Z,36.60
2018-09-17T12:35:26.849Z,36.40
2018-09-17T12:36:26.853Z,36.60
2018-09-17T12:37:26.955Z,37.18
2018-09-17T12:38:26.863Z,37.07
2018-09-17T12:39:26.863Z,37.55
2018-09-17T12:40:26.869Z,35.51
2018-09-17T12:41:26.874Z,35.90
2018-09-17T12:42:26.904Z,35.32
2018-09-17T12:43:26.880Z,35.05
2018-09-17T12:44:26.891Z,34.66
2018-09-17T12:45:26.893Z,36.50
2018-09-17T12:46:26.894Z,36.99
2018-09-17T12:47:27.278Z,37.18
2018-09-17T12:48:26.901Z,36.89
2018-09-17T12:49:26.903Z,36.99
2018-09-17T12:50:26.931Z,36.50
2018-09-17T12:51:26.913Z,35.92
2018-09-17T12:52:26.918Z,35.72
2018-09-17T12:53:26.920Z,35.53